Time;durP1;ratioP1;P1;durP2;ratioP2;P2;SDS_P1;SDS_P2;PMS_P1;PMS_P2;Temp;Humidity;BMP_temperature;BMP_pressure;BME280_temperature;BME280_humidity;BME280_pressure;Samples;Min_cycle;Max_cycle;Signal;HPM_P1;HPM_P2
2021/06/18 00:00:39;;;;;;;3.83;2.02;;;;;;;23.30;63.16;101272.68;1749036;81;21054;-54
2021/06/18 00:03:05;;;;;;;3.25;2.08;;;;;;;23.30;63.23;101274.48;1761811;81;21008;-54
2021/06/18 00:05:32;;;;;;;3.60;2.40;;;;;;;23.30;63.28;101270.50;1763919;81;21007;-59
2021/06/18 00:07:59;;;;;;;6.78;3.17;;;;;;;23.29;63.27;101261.67;1760511;81;21078;-54
2021/06/18 00:10:26;;;;;;;4.97;2.60;;;;;;;23.30;63.07;101267.84;1759131;81;21549;-54
2021/06/18 00:12:55;;;;;;;5.75;2.67;;;;;;;23.28;63.00;101265.30;1766176;81;21059;-62
2021/06/18 00:15:22;;;;;;;5.85;2.42;;;;;;;23.27;62.97;101262.25;1762446;81;21063;-53
2021/06/18 00:17:50;;;;;;;5.30;2.67;;;;;;;23.28;62.93;101263.11;1759903;81;20988;-54
2021/06/18 00:20:17;;;;;;;5.62;2.83;;;;;;;23.27;62.80;101254.75;1758822;81;21514;-61
2021/06/18 00:22:43;;;;;;;5.20;2.60;;;;;;;23.26;62.75;101259.70;1753264;81;20988;-54
2021/06/18 00:25:11;;;;;;;3.47;2.58;;;;;;;23.23;62.77;101258.56;1752923;81;21362;-53
2021/06/18 00:27:38;;;;;;;3.95;2.60;;;;;;;23.20;62.73;101244.18;1750503;81;21505;-54
2021/06/18 00:30:10;;;;;;;2.80;2.58;;;;;;;23.17;62.80;101250.53;1749837;81;21500;-54
2021/06/18 00:32:37;;;;;;;5.92;2.67;;;;;;;23.14;62.91;101245.92;1758725;81;21499;-54
2021/06/18 00:35:06;;;;;;;5.78;2.85;;;;;;;23.12;62.87;101249.15;1757764;81;21031;-53
2021/06/18 00:37:34;;;;;;;3.15;2.58;;;;;;;23.08;62.87;101252.45;1762486;81;21565;-54
2021/06/18 00:40:05;;;;;;;4.40;3.10;;;;;;;23.05;62.88;101254.00;1759664;80;21068;-57
2021/06/18 00:42:31;;;;;;;5.25;2.25;;;;;;;23.05;63.13;101250.48;1758060;81;21012;-54
2021/06/18 00:44:58;;;;;;;7.03;3.20;;;;;;;23.04;63.10;101245.65;1762627;81;21538;-54
2021/06/18 00:47:25;;;;;;;7.47;2.90;;;;;;;23.05;63.19;101238.55;1766607;81;21000;-53
2021/06/18 00:49:52;;;;;;;3.47;2.40;;;;;;;23.06;63.25;101233.63;1756337;80;21038;-57
2021/06/18 00:52:19;;;;;;;6.62;3.40;;;;;;;23.07;63.05;101233.98;1754387;81;21027;-54
2021/06/18 00:54:46;;;;;;;4.20;3.00;;;;;;;23.05;62.91;101226.60;1751201;80;21483;-58
2021/06/18 00:57:14;;;;;;;7.55;3.20;;;;;;;23.05;62.91;101218.17;1751967;81;21069;-55
2021/06/18 00:59:41;;;;;;;6.25;2.62;;;;;;;23.04;62.93;101216.95;1764325;81;21042;-54
2021/06/18 01:02:08;;;;;;;2.85;2.05;;;;;;;23.05;62.89;101215.98;1761299;81;21505;-59
2021/06/18 01:04:35;;;;;;;2.17;1.98;;;;;;;23.07;62.86;101218.06;1755193;81;21037;-54
2021/06/18 01:07:22;;;;;;;5.50;2.50;;;;;;;23.04;62.76;101212.97;1761193;81;20979;-53
2021/06/18 01:10:33;;;;;;;3.37;2.37;;;;;;;23.01;62.70;101202.08;1696683;84;21736;-57
2021/06/18 01:13:17;;;;;;;4.10;2.40;;;;;;;23.02;62.78;101192.31;1703669;84;21067;-54
2021/06/18 01:15:52;;;;;;;7.05;2.85;;;;;;;23.02;62.72;101185.67;1698499;84;21079;-54
2021/06/18 01:18:30;;;;;;;6.83;2.42;;;;;;;23.04;62.91;101182.45;1700170;84;21133;-54
2021/06/18 01:21:23;;;;;;;5.65;2.52;;;;;;;23.03;62.87;101172.77;1702490;84;21031;-54
2021/06/18 01:24:23;;;;;;;3.60;2.30;;;;;;;23.03;62.92;101174.09;1702972;84;21071;-55
2021/06/18 01:27:32;;;;;;;4.60;2.40;;;;;;;23.01;62.85;101182.63;1703238;84;21079;-55
2021/06/18 01:30:14;;;;;;;3.35;2.15;;;;;;;23.00;62.98;101194.22;1701692;84;21035;-54
2021/06/18 01:32:58;;;;;;;4.53;2.33;;;;;;;22.98;63.15;101190.31;1654433;86;21123;-53
2021/06/18 01:35:40;;;;;;;3.83;2.00;;;;;;;22.98;63.35;101193.47;1630870;88;21071;-54
2021/06/18 01:38:09;;;;;;;5.62;2.85;;;;;;;22.97;63.44;101202.37;1632592;88;21050;-54
2021/06/18 01:40:36;;;;;;;4.47;2.22;;;;;;;22.95;63.43;101209.58;1632375;88;20999;-54
2021/06/18 01:43:06;;;;;;;4.97;1.98;;;;;;;22.94;63.46;101205.21;1669699;85;21021;-61
2021/06/18 01:45:34;;;;;;;7.85;3.25;;;;;;;22.92;63.45;101201.81;1623163;87;21081;-54
2021/06/18 01:48:04;;;;;;;5.10;2.33;;;;;;;22.92;63.55;101209.77;1576859;88;21079;-55
2021/06/18 01:50:30;;;;;;;4.90;2.52;;;;;;;22.91;63.54;101216.05;1611414;88;21027;-62
2021/06/18 01:53:04;;;;;;;3.55;2.45;;;;;;;22.90;63.70;101218.30;1593909;86;21265;-54
2021/06/18 01:55:31;;;;;;;3.40;2.67;;;;;;;22.89;63.83;101206.00;1583629;89;21081;-54
2021/06/18 01:58:00;;;;;;;3.55;2.40;;;;;;;22.90;63.80;101209.02;1598509;90;21063;-55
2021/06/18 02:00:34;;;;;;;3.60;2.50;;;;;;;22.90;63.77;101220.96;1598486;89;21083;-54
2021/06/18 02:03:03;;;;;;;3.08;2.60;;;;;;;22.91;63.74;101216.91;1578056;89;21107;-54
2021/06/18 02:05:30;;;;;;;4.72;2.45;;;;;;;22.90;63.66;101214.33;1553518;91;21133;-54
2021/06/18 02:07:57;;;;;;;4.97;2.75;;;;;;;22.93;63.59;101220.78;1536617;92;21081;-54
2021/06/18 02:10:24;;;;;;;4.72;3.20;;;;;;;22.91;63.41;101218.70;1551197;91;21091;-55
2021/06/18 02:12:50;;;;;;;4.95;3.95;;;;;;;22.90;63.50;101210.34;1575629;89;21131;-54
2021/06/18 02:15:18;;;;;;;6.33;3.52;;;;;;;22.90;63.37;101224.94;1546002;91;21567;-54
2021/06/18 02:17:45;;;;;;;3.92;3.08;;;;;;;22.88;63.34;101225.52;1524595;92;21099;-55
2021/06/18 02:20:12;;;;;;;5.50;2.95;;;;;;;22.87;63.42;101227.34;1553230;91;21136;-54
2021/06/18 02:22:40;;;;;;;3.27;2.98;;;;;;;22.87;63.40;101241.08;1569001;90;21071;-54
2021/06/18 02:25:09;;;;;;;3.72;2.67;;;;;;;22.87;63.36;101238.42;1583760;89;21138;-55
2021/06/18 02:27:35;;;;;;;4.30;2.58;;;;;;;22.88;63.34;101242.77;1554216;91;21583;-54
2021/06/18 02:30:04;;;;;;;3.72;2.87;;;;;;;22.86;63.45;101233.59;1543563;91;21179;-55
2021/06/18 02:32:31;;;;;;;3.62;2.50;;;;;;;22.83;63.49;101243.09;1620999;85;21067;-54
2021/06/18 02:34:58;;;;;;;3.65;2.42;;;;;;;22.83;63.59;101242.23;1620072;87;21062;-54
2021/06/18 02:37:25;;;;;;;3.83;2.62;;;;;;;22.81;63.77;101240.16;1646378;86;21610;-54
2021/06/18 02:39:52;;;;;;;6.03;3.05;;;;;;;22.81;63.76;101244.99;1632219;88;21063;-54
2021/06/18 02:42:18;;;;;;;3.42;2.67;;;;;;;22.80;63.89;101241.95;1668074;84;21079;-54
2021/06/18 02:44:47;;;;;;;2.80;2.60;;;;;;;22.80;63.90;101247.72;1701463;84;21077;-54
2021/06/18 02:47:34;;;;;;;3.40;3.00;;;;;;;22.79;63.95;101252.20;1700748;84;21063;-57
2021/06/18 02:50:05;;;;;;;3.37;2.90;;;;;;;22.80;63.95;101249.05;1684271;84;21059;-54
2021/06/18 02:53:00;;;;;;;5.15;3.67;;;;;;;22.76;63.67;101258.16;1699472;84;21043;-54
2021/06/18 02:55:37;;;;;;;5.75;3.33;;;;;;;22.76;63.67;101258.16;1701318;84;21589;-54
2021/06/18 02:58:42;;;;;;;4.70;3.60;;;;;;;22.76;63.98;101250.20;1702329;84;21028;-54
2021/06/18 03:01:08;;;;;;;5.40;3.62;;;;;;;22.76;64.03;101255.50;1702003;84;21059;-55
2021/06/18 03:03:41;;;;;;;5.78;3.90;;;;;;;22.76;64.26;101256.36;1701675;84;21586;-56
2021/06/18 03:06:08;;;;;;;6.95;4.35;;;;;;;22.77;64.32;101257.22;1700142;84;21063;-53
2021/06/18 03:08:40;;;;;;;5.65;3.77;;;;;;;22.76;64.34;101262.14;1699377;84;21018;-59
2021/06/18 03:11:07;;;;;;;4.37;3.72;;;;;;;22.76;64.30;101262.14;1695343;84;21028;-56
2021/06/18 03:13:38;;;;;;;6.50;4.15;;;;;;;22.76;64.27;101270.09;1698511;84;21511;-56
2021/06/18 03:16:06;;;;;;;;;;;;;;;22.77;64.35;101266.51;1704118;84;21039;-55
2021/06/18 03:18:33;;;;;;;6.20;3.80;;;;;;;22.78;64.37;101273.50;1701684;84;20114;-55
2021/06/18 03:21:00;;;;;;;6.97;3.95;;;;;;;22.76;64.35;101270.95;1724297;81;21008;-55
2021/06/18 03:23:27;;;;;;;6.90;3.90;;;;;;;22.75;64.39;101268.41;1742926;81;21474;-55
2021/06/18 03:25:54;;;;;;;5.08;3.47;;;;;;;22.75;64.45;101272.39;1761296;81;20997;-55
2021/06/18 03:28:23;;;;;;;4.28;3.75;;;;;;;22.78;64.47;101268.20;1755708;80;21046;-55
2021/06/18 03:30:50;;;;;;;7.45;4.15;;;;;;;22.80;64.33;101259.66;1767713;81;21046;-55
2021/06/18 03:33:18;;;;;;;6.80;3.70;;;;;;;22.82;64.25;101259.08;1755524;81;21025;-55
2021/06/18 03:35:46;;;;;;;8.75;3.87;;;;;;;22.84;64.06;101259.84;1756719;80;21010;-55
2021/06/18 03:38:15;;;;;;;4.40;3.52;;;;;;;22.90;63.71;101258.11;1766444;81;21078;-56
2021/06/18 03:40:42;;;;;;;5.67;3.33;;;;;;;22.93;63.26;101259.26;1760819;81;21084;-55
2021/06/18 03:43:09;;;;;;;4.95;3.12;;;;;;;22.96;63.07;101249.75;1750727;80;21061;-56
2021/06/18 03:45:39;;;;;;;4.33;2.83;;;;;;;23.08;63.34;101255.61;1766639;81;20991;-57
2021/06/18 03:48:12;;;;;;;4.28;2.72;;;;;;;23.30;62.45;101246.13;1730982;81;20994;-53
2021/06/18 03:50:39;;;;;;;4.28;3.37;;;;;;;23.59;61.64;101241.55;1758927;81;21018;-53
2021/06/18 03:53:08;;;;;;;5.53;2.52;;;;;;;23.86;61.15;101238.33;1755520;80;21019;-53
2021/06/18 03:55:38;;;;;;;4.30;3.00;;;;;;;24.23;60.81;101245.44;1764447;81;21039;-53
2021/06/18 03:58:06;;;;;;;5.22;2.87;;;;;;;24.76;59.50;101244.77;1706283;83;21066;-56
2021/06/18 04:00:36;;;;;;;3.75;2.35;;;;;;;25.30;57.85;101239.84;1698578;83;21105;-58
2021/06/18 04:03:04;;;;;;;3.17;2.27;;;;;;;25.71;56.46;101241.10;1665041;83;21652;-53
2021/06/18 04:05:30;;;;;;;7.78;2.87;;;;;;;25.97;55.32;101236.40;1685003;84;21610;-53
2021/06/18 04:07:57;;;;;;;3.45;2.30;;;;;;;26.04;54.71;101236.77;1684266;83;21066;-53
2021/06/18 04:10:25;;;;;;;4.75;2.72;;;;;;;26.03;54.61;101238.58;1689076;84;21031;-54
2021/06/18 04:12:53;;;;;;;2.40;2.12;;;;;;;25.95;54.37;101234.81;1697521;83;21164;-53
2021/06/18 04:15:22;;;;;;;3.90;2.42;;;;;;;25.87;54.75;101243.89;1703031;83;21056;-53
2021/06/18 04:17:51;;;;;;;5.25;2.50;;;;;;;25.89;54.72;101233.95;1701126;83;21014;-59
2021/06/18 04:20:21;;;;;;;4.20;2.20;;;;;;;25.88;54.51;101238.47;1697632;83;21021;-56
2021/06/18 04:22:50;;;;;;;3.52;2.30;;;;;;;25.78;54.55;101232.98;1695545;83;21087;-54
2021/06/18 04:25:17;;;;;;;2.95;2.35;;;;;;;25.64;54.78;101229.67;1669063;83;21045;-55
2021/06/18 04:27:44;;;;;;;4.37;2.40;;;;;;;25.49;55.09;101238.36;1695953;83;21044;-54
2021/06/18 04:30:13;;;;;;;3.17;2.05;;;;;;;25.38;55.41;101234.78;1700305;83;20995;-55
2021/06/18 04:32:39;;;;;;;4.08;2.33;;;;;;;25.25;55.52;101234.86;1665432;85;21049;-55
2021/06/18 04:35:08;;;;;;;5.20;2.47;;;;;;;25.14;55.78;101239.30;1691254;83;21073;-55
2021/06/18 04:37:35;;;;;;;5.10;2.40;;;;;;;25.00;56.07;101236.31;1702490;83;21112;-60
2021/06/18 04:40:04;;;;;;;5.70;2.67;;;;;;;24.93;56.57;101247.92;1694187;83;21078;-55
2021/06/18 04:42:31;;;;;;;5.00;2.45;;;;;;;24.86;56.63;101240.48;1626338;86;21142;-55
2021/06/18 04:44:58;;;;;;;3.75;2.20;;;;;;;24.79;56.81;101244.56;1634737;86;21624;-54
2021/06/18 04:47:26;;;;;;;5.60;2.42;;;;;;;24.71;57.01;101245.07;1637622;86;21115;-55
2021/06/18 04:49:52;;;;;;;4.17;2.37;;;;;;;24.68;57.22;101251.11;1640140;86;21051;-54
2021/06/18 04:52:19;;;;;;;3.50;2.22;;;;;;;24.66;57.34;101241.05;1636982;86;20980;-56
2021/06/18 04:54:46;;;;;;;2.25;2.05;;;;;;;24.62;57.23;101242.23;1637169;86;21031;-54
2021/06/18 04:57:14;;;;;;;3.52;2.40;;;;;;;24.59;57.39;101239.31;1628229;86;21082;-54
2021/06/18 04:59:40;;;;;;;3.72;2.20;;;;;;;24.60;57.42;101245.48;1643190;86;21153;-59
2021/06/18 05:02:07;;;;;;;3.40;2.40;;;;;;;24.60;57.55;101240.17;1666498;85;21060;-54
2021/06/18 05:04:33;;;;;;;3.90;2.30;;;;;;;24.64;57.51;101236.33;1670161;85;21097;-56
2021/06/18 05:07:00;;;;;;;2.67;2.30;;;;;;;24.71;57.10;101241.58;1670127;85;21069;-57
2021/06/18 05:09:26;;;;;;;4.78;2.60;;;;;;;24.75;56.99;101249.75;1674660;85;21081;-55
2021/06/18 05:11:53;;;;;;;3.92;2.10;;;;;;;24.77;57.09;101239.33;1675831;85;21140;-54
2021/06/18 05:14:22;;;;;;;5.40;2.62;;;;;;;24.82;56.88;101236.34;1675408;85;21069;-55
2021/06/18 05:16:48;;;;;;;3.90;2.35;;;;;;;24.93;56.70;101236.41;1614439;87;21030;-56
2021/06/18 05:19:15;;;;;;;4.25;2.20;;;;;;;25.00;56.68;101238.97;1650688;86;21071;-57
2021/06/18 05:21:42;;;;;;;4.10;2.60;;;;;;;25.08;56.73;101243.25;1659382;86;21083;-53
2021/06/18 05:24:09;;;;;;;5.35;2.50;;;;;;;25.17;56.45;101244.38;1650568;86;21534;-51
2021/06/18 05:26:37;;;;;;;3.52;2.22;;;;;;;25.24;56.35;101254.48;1656166;86;21039;-53
2021/06/18 05:29:03;;;;;;;4.10;2.45;;;;;;;25.29;55.89;101252.30;1658601;86;21066;-53
2021/06/18 05:31:30;;;;;;;3.60;2.30;;;;;;;25.31;55.61;101247.72;1657245;86;21070;-51
2021/06/18 05:33:57;;;;;;;6.30;2.20;;;;;;;25.33;55.79;101259.10;1643762;85;21592;-52
2021/06/18 05:36:25;;;;;;;4.83;2.10;;;;;;;25.36;55.92;101256.23;1638240;85;21078;-56
2021/06/18 05:38:52;;;;;;;3.72;2.08;;;;;;;25.43;56.04;101262.80;1675056;83;21549;-51
2021/06/18 05:41:19;;;;;;;3.37;2.10;;;;;;;25.48;55.28;101263.32;1693106;83;21102;-54
2021/06/18 05:43:46;;;;;;;3.83;2.10;;;;;;;25.47;55.32;101268.77;1692814;83;21078;-54
2021/06/18 05:46:13;;;;;;;8.50;3.10;;;;;;;25.49;55.21;101273.00;1702221;83;21093;-53
2021/06/18 05:48:39;;;;;;;4.55;2.50;;;;;;;25.52;55.41;101266.12;1690476;83;21524;-54
2021/06/18 05:51:06;;;;;;;3.58;2.30;;;;;;;25.62;55.31;101268.45;1709591;82;21035;-55
2021/06/18 05:53:34;;;;;;;3.37;2.27;;;;;;;25.72;55.06;101266.77;1771412;80;21023;-54
2021/06/18 05:56:01;;;;;;;2.75;2.27;;;;;;;25.83;54.93;101266.81;1766590;80;21013;-51
2021/06/18 05:58:28;;;;;;;5.95;2.65;;;;;;;25.95;54.61;101261.48;1770744;80;21007;-50
2021/06/18 06:00:54;;;;;;;4.22;2.27;;;;;;;26.01;54.27;101263.70;1760702;81;21062;-52
2021/06/18 06:03:22;;;;;;;7.08;2.65;;;;;;;26.07;54.44;101265.88;1741872;80;21043;-53
2021/06/18 06:05:49;;;;;;;3.35;1.90;;;;;;;26.15;54.35;101260.83;1746698;80;20978;-52
2021/06/18 06:08:16;;;;;;;4.83;2.70;;;;;;;26.23;53.76;101258.41;1740330;80;21013;-52
2021/06/18 06:10:49;;;;;;;5.40;2.27;;;;;;;26.30;53.86;101263.59;1751215;80;21597;-51
2021/06/18 06:13:17;;;;;;;3.80;2.15;;;;;;;26.38;53.33;101267.84;1713549;82;21509;-52
2021/06/18 06:15:44;;;;;;;4.42;2.50;;;;;;;26.45;53.01;101266.39;1719327;82;21052;-57
2021/06/18 06:18:11;;;;;;;6.33;2.35;;;;;;;26.58;52.84;101271.13;1723123;83;21049;-53
2021/06/18 06:20:38;;;;;;;3.98;2.00;;;;;;;26.99;51.84;101271.33;1722561;82;21086;-51
2021/06/18 06:23:04;;;;;;;7.42;2.98;;;;;;;27.10;51.63;101269.94;1708763;82;20987;-53
2021/06/18 06:25:31;;;;;;;6.70;2.62;;;;;;;27.10;51.63;101269.94;1720175;83;21069;-57
2021/06/18 06:27:58;;;;;;;6.08;2.50;;;;;;;27.18;51.39;101270.15;1718270;83;21052;-55
2021/06/18 06:30:25;;;;;;;2.65;1.85;;;;;;;27.21;51.07;101264.56;1717690;82;21069;-52
2021/06/18 06:32:52;;;;;;;4.65;2.60;;;;;;;27.17;50.84;101262.27;1721983;83;21003;-51
2021/06/18 06:35:21;;;;;;;4.83;2.70;;;;;;;27.03;51.79;101266.09;1721418;83;21084;-52
2021/06/18 06:37:48;;;;;;;4.22;2.40;;;;;;;27.03;51.79;101266.09;1721104;82;21091;-53
2021/06/18 06:40:16;;;;;;;6.67;2.30;;;;;;;26.92;51.58;101266.11;1720016;82;21050;-53
2021/06/18 06:42:43;;;;;;;12.25;3.05;;;;;;;26.73;51.73;101267.75;1720160;82;21006;-51
2021/06/18 06:45:11;;;;;;;6.50;2.65;;;;;;;26.73;51.73;101267.75;1717715;83;21096;-51
2021/06/18 06:47:38;;;;;;;5.87;2.77;;;;;;;26.63;51.86;101266.25;1718803;83;21073;-54
2021/06/18 06:50:06;;;;;;;4.55;2.55;;;;;;;26.56;52.35;101262.40;1724289;81;21027;-52
2021/06/18 06:52:33;;;;;;;6.42;2.22;;;;;;;26.48;52.47;101267.50;1721255;81;21525;-54
2021/06/18 06:55:00;;;;;;;6.47;3.00;;;;;;;26.48;52.47;101267.50;1720699;83;21483;-54
2021/06/18 06:57:27;;;;;;;4.58;2.30;;;;;;;26.41;52.69;101273.80;1719569;83;21006;-55
2021/06/18 06:59:54;;;;;;;7.08;2.02;;;;;;;26.38;53.23;101271.84;1708076;82;21513;-54
2021/06/18 07:02:21;;;;;;;6.80;2.25;;;;;;;26.36;53.01;101268.45;1726231;81;21046;-55
2021/06/18 07:04:48;;;;;;;7.30;2.33;;;;;;;26.35;53.36;101265.44;1729935;81;20994;-54
2021/06/18 07:07:16;;;;;;;5.53;2.50;;;;;;;26.36;53.52;101272.45;1726349;81;21062;-57
2021/06/18 07:09:43;;;;;;;7.92;2.72;;;;;;;26.43;53.61;101273.67;1720153;80;21009;-57
2021/06/18 07:12:10;;;;;;;4.72;2.85;;;;;;;26.51;53.29;101271.24;1767259;80;22326;-51
2021/06/18 07:14:39;;;;;;;5.67;2.17;;;;;;;26.55;52.98;101273.55;1764643;80;21077;-51
2021/06/18 07:17:07;;;;;;;7.22;2.47;;;;;;;26.60;53.18;101281.20;1749248;80;21532;-55
2021/06/18 07:19:34;;;;;;;3.80;2.17;;;;;;;26.63;52.87;101280.11;1677294;83;21526;-57
2021/06/18 07:22:03;;;;;;;3.72;2.25;;;;;;;26.78;53.21;101275.73;1689666;83;21050;-53
2021/06/18 07:24:30;;;;;;;4.78;2.33;;;;;;;26.78;53.21;101275.73;1686565;83;20998;-53
2021/06/18 07:26:58;;;;;;;3.50;2.30;;;;;;;26.88;52.96;101275.34;1751877;80;21072;-55
2021/06/18 07:29:26;;;;;;;4.80;2.30;;;;;;;27.02;52.61;101281.74;1742743;80;21089;-56
2021/06/18 07:31:54;;;;;;;5.08;2.72;;;;;;;27.05;52.16;101284.17;1681950;83;21023;-55
2021/06/18 07:34:21;;;;;;;5.70;2.80;;;;;;;27.05;52.16;101284.17;1706021;82;20990;-52
2021/06/18 07:36:48;;;;;;;4.28;2.33;;;;;;;27.02;52.39;101284.89;1756081;80;21030;-56
2021/06/18 07:39:15;;;;;;;7.37;2.58;;;;;;;26.99;52.57;101283.34;1761853;80;21509;-53
2021/06/18 07:41:42;;;;;;;4.35;2.15;;;;;;;26.99;52.57;101283.34;1764698;80;21943;-54
2021/06/18 07:44:09;;;;;;;3.70;2.00;;;;;;;26.93;52.99;101277.17;1757380;80;21006;-53
2021/06/18 07:46:37;;;;;;;9.68;2.80;;;;;;;26.93;52.99;101277.17;1770458;80;21061;-51
2021/06/18 07:49:04;;;;;;;5.58;2.70;;;;;;;26.94;53.24;101288.20;1766353;80;21041;-55
2021/06/18 07:51:31;;;;;;;7.67;2.55;;;;;;;26.94;53.24;101288.20;1769091;80;21518;-54
2021/06/18 07:53:58;;;;;;;12.50;2.67;;;;;;;26.93;52.95;101286.52;1772164;80;21038;-55
2021/06/18 07:56:27;;;;;;;5.08;2.52;;;;;;;26.93;52.72;101291.00;1759459;80;21534;-54
2021/06/18 07:58:54;;;;;;;4.97;2.30;;;;;;;26.91;52.89;101291.61;1753519;80;21034;-51
2021/06/18 08:01:22;;;;;;;5.47;2.22;;;;;;;26.92;52.64;101292.81;1749617;80;21540;-57
2021/06/18 08:03:49;;;;;;;5.47;2.67;;;;;;;26.85;52.57;101286.30;1770176;80;21061;-52
2021/06/18 08:06:16;;;;;;;9.00;2.60;;;;;;;26.85;52.57;101286.30;1775495;80;21015;-52
2021/06/18 08:08:44;;;;;;;6.22;2.02;;;;;;;26.85;52.53;101288.97;1758644;80;21051;-55
2021/06/18 08:11:11;;;;;;;11.08;2.55;;;;;;;26.82;52.40;101279.85;1763063;80;21011;-54
2021/06/18 08:13:40;;;;;;;4.70;2.20;;;;;;;26.80;52.28;101280.47;1765282;80;21558;-51
2021/06/18 08:16:07;;;;;;;3.60;2.20;;;;;;;26.80;52.28;101280.47;1756635;80;21054;-53
2021/06/18 08:18:35;;;;;;;5.35;2.08;;;;;;;26.79;51.89;101281.42;1744509;80;21101;-53
2021/06/18 08:21:04;;;;;;;4.42;2.22;;;;;;;26.79;51.99;101281.42;1738644;80;21025;-54
2021/06/18 08:23:31;;;;;;;6.60;2.20;;;;;;;26.81;50.99;101271.47;1746896;80;21030;-54
2021/06/18 08:25:58;;;;;;;5.55;2.67;;;;;;;26.80;51.48;101277.80;1760188;80;21005;-54
2021/06/18 08:28:25;;;;;;;6.15;2.40;;;;;;;26.80;51.48;101277.80;1754755;80;21051;-54
2021/06/18 08:30:52;;;;;;;5.12;2.55;;;;;;;26.79;51.39;101278.75;1739873;81;21018;-52
2021/06/18 08:33:19;;;;;;;8.58;2.67;;;;;;;26.82;51.48;101281.19;1749195;80;21611;-53
2021/06/18 08:35:46;;;;;;;6.53;2.45;;;;;;;26.86;51.51;101286.64;1738835;81;21067;-53
2021/06/18 08:38:13;;;;;;;5.45;2.20;;;;;;;26.84;51.51;101292.59;1754849;80;21081;-52
2021/06/18 08:40:40;;;;;;;4.47;2.52;;;;;;;26.84;52.09;101296.60;1742398;80;21026;-56
2021/06/18 08:43:07;;;;;;;6.90;2.37;;;;;;;26.88;51.96;101295.86;1758820;80;21729;-55
2021/06/18 08:45:34;;;;;;;4.08;1.98;;;;;;;26.94;51.85;101296.21;1754961;80;21025;-52
2021/06/18 08:48:01;;;;;;;4.05;2.40;;;;;;;26.94;51.85;101296.21;1752683;80;21003;-53
2021/06/18 08:50:28;;;;;;;5.95;2.58;;;;;;;26.96;51.95;101292.92;1729411;81;21038;-57
2021/06/18 08:52:58;;;;;;;6.65;2.25;;;;;;;26.97;51.76;101298.65;1740751;80;21053;-54
2021/06/18 08:55:29;;;;;;;6.12;2.60;;;;;;;26.97;51.76;101298.65;1758961;80;21014;-54
2021/06/18 08:57:59;;;;;;;4.27;2.10;;;;;;;26.94;51.90;101298.02;1750326;80;21514;-52
2021/06/18 09:00:27;;;;;;;5.75;2.17;;;;;;;26.91;51.81;101301.81;1684980;84;21724;-54
2021/06/18 09:02:55;;;;;;;2.47;1.85;;;;;;;26.89;51.91;101301.58;1662819;85;21046;-50
2021/06/18 09:05:22;;;;;;;6.17;2.33;;;;;;;26.87;52.02;101300.38;1672927;85;21223;-54
2021/06/18 09:08:04;;;;;;;5.92;2.45;;;;;;;26.90;52.10;101309.45;1659980;85;21093;-53
2021/06/18 09:10:40;;;;;;;3.72;1.98;;;;;;;26.90;52.10;101309.45;1661614;85;21129;-52
2021/06/18 09:13:13;;;;;;;2.33;1.70;;;;;;;26.94;51.67;101310.05;1669641;85;21145;-53
2021/06/18 09:15:53;;;;;;;5.83;2.58;;;;;;;26.94;51.70;101310.90;1672923;85;21073;-51
2021/06/18 09:18:39;;;;;;;4.53;2.10;;;;;;;26.86;51.90;101305.33;1636355;86;21043;-51
2021/06/18 09:21:19;;;;;;;6.05;2.20;;;;;;;26.86;51.90;101305.33;1650328;86;21115;-52
2021/06/18 09:23:49;;;;;;;4.45;2.12;;;;;;;26.85;52.34;101304.98;1621758;87;21007;-52
2021/06/18 09:26:29;;;;;;;4.78;2.30;;;;;;;26.90;52.34;101299.25;1603323;87;21615;-54
2021/06/18 09:29:12;;;;;;;6.40;2.60;;;;;;;26.92;52.09;101298.64;1575148;89;21117;-53
2021/06/18 09:31:51;;;;;;;3.92;2.02;;;;;;;26.92;51.67;101302.16;1570174;89;21019;-52
2021/06/18 09:34:42;;;;;;;4.90;1.90;;;;;;;26.92;51.67;101302.16;1544490;91;21284;-58
2021/06/18 09:37:21;;;;;;;5.35;2.62;;;;;;;26.95;51.98;101304.60;1536755;91;22066;-53
2021/06/18 09:40:10;;;;;;;5.12;2.12;;;;;;;26.98;51.54;101310.16;1570407;89;21739;-53
2021/06/18 09:42:41;;;;;;;4.67;2.47;;;;;;;26.99;51.61;101307.38;1581491;90;21061;-53
2021/06/18 09:45:10;;;;;;;3.98;2.22;;;;;;;27.02;51.82;101310.27;1551410;91;21046;-53
2021/06/18 09:47:38;;;;;;;4.90;2.33;;;;;;;27.05;51.74;101314.89;1541867;91;21042;-54
2021/06/18 09:50:08;;;;;;;4.15;1.90;;;;;;;27.10;52.11;101318.02;1537659;91;21636;-52
2021/06/18 09:52:37;;;;;;;5.55;2.08;;;;;;;27.15;52.15;101310.97;1530103;90;21083;-54
2021/06/18 09:55:04;;;;;;;3.90;1.75;;;;;;;27.22;51.19;101306.33;1550108;90;21106;-54
2021/06/18 09:57:42;;;;;;;3.70;2.12;;;;;;;27.22;51.19;101306.33;1553858;90;21138;-53
2021/06/18 10:00:15;;;;;;;6.12;2.27;;;;;;;27.24;51.56;101296.36;1542611;90;21634;-54
2021/06/18 10:02:49;;;;;;;3.70;1.90;;;;;;;27.27;51.22;101301.46;1542704;91;21572;-53
2021/06/18 10:05:20;;;;;;;5.60;2.05;;;;;;;27.27;51.22;101301.46;1559298;90;21146;-51
2021/06/18 10:07:50;;;;;;;7.70;2.42;;;;;;;27.31;51.53;101306.91;1497370;94;21641;-55
2021/06/18 10:10:23;;;;;;;4.05;2.08;;;;;;;27.33;51.19;101303.63;1502279;94;21115;-54
2021/06/18 10:12:54;;;;;;;4.53;2.10;;;;;;;27.36;50.88;101303.42;1448396;97;21223;-52
2021/06/18 10:15:24;;;;;;;6.87;2.33;;;;;;;27.37;50.68;101299.75;1455713;97;21132;-53
2021/06/18 10:17:53;;;;;;;6.95;1.70;;;;;;;27.39;50.94;101304.48;1422984;98;21135;-51
2021/06/18 10:20:25;;;;;;;5.25;2.35;;;;;;;27.38;50.37;101301.47;1447556;97;21630;-49
2021/06/18 10:23:10;;;;;;;6.42;2.17;;;;;;;27.36;50.49;101286.05;1458814;96;21068;-56
2021/06/18 10:25:57;;;;;;;6.75;2.00;;;;;;;27.36;50.49;101286.05;1429966;99;21108;-51
2021/06/18 10:28:34;;;;;;;5.72;2.15;;;;;;;27.38;50.40;101293.92;1461852;97;21698;-55
2021/06/18 10:31:05;;;;;;;5.03;2.08;;;;;;;27.38;50.66;101288.10;1398183;100;21687;-52
2021/06/18 10:33:36;;;;;;;3.37;2.25;;;;;;;27.41;50.48;101295.50;1366869;102;21154;-55
2021/06/18 10:36:24;;;;;;;;;;;;;;;27.41;50.56;101285.64;1353178;104;21228;-52
2021/06/18 10:41:56;;;;;;;7.05;2.10;;;;;;;27.47;50.53;101285.63;1344622;105;21147;-54
2021/06/18 10:44:44;;;;;;;7.30;3.47;;;;;;;27.49;50.64;101281.86;1296419;109;21703;-52
2021/06/18 10:47:34;;;;;;;4.67;2.08;;;;;;;27.59;50.43;101288.61;1293260;109;21151;-50
2021/06/18 10:50:01;;;;;;;5.47;3.08;;;;;;;27.59;50.43;101288.61;1284424;109;21345;-50
2021/06/18 10:52:38;;;;;;;6.50;2.62;;;;;;;27.64;50.48;101290.39;1284464;109;21302;-51
2021/06/18 10:55:06;;;;;;;8.90;2.90;;;;;;;27.67;50.79;101295.49;1265413;112;21201;-52
2021/06/18 10:57:32;;;;;;;7.00;2.70;;;;;;;27.80;51.26;101298.84;1252036;114;21755;-51
2021/06/18 11:00:22;;;;;;;5.37;2.35;;;;;;;27.80;50.30;101293.48;1287771;109;21190;-51
2021/06/18 11:03:57;;;;;;;6.17;2.00;;;;;;;27.80;50.30;101293.48;1268189;109;21165;-56
2021/06/18 11:06:51;;;;;;;4.25;2.08;;;;;;;27.80;49.86;101291.64;1304812;108;21189;-51
2021/06/18 11:09:43;;;;;;;4.97;2.00;;;;;;;27.81;49.62;101297.84;1310344;107;21117;-55
2021/06/18 11:12:29;;;;;;;5.95;2.00;;;;;;;27.79;50.48;101305.15;1323176;106;21934;-58
2021/06/18 11:15:03;;;;;;;4.50;1.90;;;;;;;27.81;50.65;101305.86;1328401;106;21172;-53
2021/06/18 11:17:49;;;;;;;2.80;1.85;;;;;;;27.84;51.03;101313.64;1310530;107;21251;-52
2021/06/18 11:20:18;;;;;;;4.42;2.10;;;;;;;27.87;50.40;101316.04;1286558;110;21216;-54
2021/06/18 11:22:54;;;;;;;3.75;2.02;;;;;;;27.89;50.36;101315.42;1286357;110;21689;-52
2021/06/18 11:26:21;;;;;;;3.50;2.17;;;;;;;27.91;50.49;101320.15;1257571;112;21754;-56
2021/06/18 11:28:48;;;;;;;5.50;1.70;;;;;;;27.94;49.98;101322.58;1256104;113;21610;-55
2021/06/18 11:31:22;;;;;;;4.78;2.08;;;;;;;27.94;49.98;101322.58;1314679;106;21760;-55
2021/06/18 11:33:57;;;;;;;8.28;2.00;;;;;;;27.94;49.57;101322.58;1338703;105;21626;-56
2021/06/18 11:36:38;;;;;;;4.50;2.22;;;;;;;27.92;49.67;101320.05;1329910;107;21206;-53
2021/06/18 11:39:09;;;;;;;;;;;;;;;27.91;49.39;101325.50;1356488;102;21166;-53
2021/06/18 11:41:40;;;;;;;5.78;2.00;;;;;;;27.89;49.93;101330.12;1393745;100;20195;-53
2021/06/18 11:44:09;;;;;;;6.30;2.15;;;;;;;27.87;49.54;101333.42;1387224;102;21633;-54